Time;durP1;ratioP1;P1;durP2;ratioP2;P2;SDS_P1;SDS_P2;PMS_P1;PMS_P2;Temp;Humidity;BMP_temperature;BMP_pressure;BME280_temperature;BME280_humidity;BME280_pressure;Samples;Min_cycle;Max_cycle;Signal;HPM_P1;HPM_P2
2021/03/05 12:57:01;;;;;;;12.40;8.13;;;;;;;;;;5121489;27;20310;-76
2021/03/05 12:59:27;;;;;;;13.60;8.27;;;;;;;;;;5117773;28;20055;-76
2021/03/05 13:01:55;;;;;;;16.33;8.30;;;;;;;;;;5102796;28;20040;-75
2021/03/05 13:04:21;;;;;;;14.23;8.80;;;;;;;;;;5095886;28;20024;-76
2021/03/05 13:06:47;;;;;;;13.07;7.95;;;;;;;;;;5096560;28;20063;-76
2021/03/05 13:09:13;;;;;;;14.52;8.02;;;;;;;;;;5099035;28;20576;-76
2021/03/05 13:11:39;;;;;;;14.35;7.05;;;;;;;;;;5101112;28;20046;-76
2021/03/05 13:14:05;;;;;;;10.75;7.65;;;;;;;;;;5096652;28;20040;-76
2021/03/05 13:16:31;;;;;;;11.68;7.40;;;;;;;;;;5095319;28;20035;-76
2021/03/05 13:18:57;;;;;;;12.00;7.80;;;;;;;;;;5093325;28;20050;-76
2021/03/05 13:21:23;;;;;;;12.73;8.05;;;;;;;;;;5098763;28;20024;-77
2021/03/05 13:23:49;;;;;;;10.68;7.60;;;;;;;;;;5101039;28;20505;-76
2021/03/05 13:26:16;;;;;;;12.70;7.22;;;;;;;;;;5091942;28;20505;-76
2021/03/05 13:28:42;;;;;;;11.60;7.25;;;;;;;;;;5097005;28;20024;-76
2021/03/05 13:31:09;;;;;;;10.65;6.95;;;;;;;;;;5095555;28;20037;-75
2021/03/05 13:33:35;;;;;;;15.98;6.95;;;;;;;;;;5092709;28;20491;-76
2021/03/05 13:36:01;;;;;;;9.55;6.53;;;;;;;;;;5103613;28;20027;-76
2021/03/05 13:38:28;;;;;;;9.45;6.25;;;;;;;;;;5093252;28;20024;-76
2021/03/05 13:40:54;;;;;;;10.85;6.45;;;;;;;;;;5096027;28;20028;-76
2021/03/05 13:43:21;;;;;;;10.80;7.13;;;;;;;;;;5095190;28;20486;-76
2021/03/05 13:45:47;;;;;;;13.20;8.52;;;;;;;;;;5088827;28;20024;-76
2021/03/05 13:48:13;;;;;;;12.15;6.82;;;;;;;;;;5100344;28;20062;-76
2021/03/05 13:50:39;;;;;;;9.48;6.40;;;;;;;;;;5096816;28;20063;-76
2021/03/05 13:53:05;;;;;;;9.70;6.07;;;;;;;;;;5100327;28;20033;-76
2021/03/05 13:55:31;;;;;;;13.70;6.53;;;;;;;;;;5090161;28;20035;-74
2021/03/05 13:57:57;;;;;;;10.30;6.57;;;;;;;;;;5087605;28;20024;-75
2021/03/05 14:00:24;;;;;;;11.07;6.53;;;;;;;;;;5092897;28;20036;-75
2021/03/05 14:02:50;;;;;;;9.68;5.88;;;;;;;;;;5101982;28;20123;-75
2021/03/05 14:05:15;;;;;;;14.55;5.95;;;;;;;;;;5096472;28;20039;-75
2021/03/05 14:07:42;;;;;;;9.38;5.78;;;;;;;;;;5087355;28;20032;-74
2021/03/05 14:10:08;;;;;;;12.23;6.88;;;;;;;;;;5076763;28;20094;-76
2021/03/05 14:12:34;;;;;;;8.85;6.07;;;;;;;;;;5088492;28;20412;-75
2021/03/05 14:15:00;;;;;;;11.70;7.05;;;;;;;;;;5078240;28;20036;-73
2021/03/05 14:17:26;;;;;;;10.13;6.20;;;;;;;;;;5081988;28;20464;-76
2021/03/05 14:19:52;;;;;;;12.45;6.47;;;;;;;;;;5088531;28;20082;-74
2021/03/05 14:22:18;;;;;;;9.63;6.20;;;;;;;;;;5092852;28;20202;-75
2021/03/05 14:24:44;;;;;;;9.57;5.88;;;;;;;;;;5089259;28;20055;-76
2021/03/05 14:27:10;;;;;;;10.23;5.82;;;;;;;;;;5081227;28;20194;-77
2021/03/05 14:29:36;;;;;;;9.07;5.68;;;;;;;;;;5085710;28;20121;-75
2021/03/05 14:32:02;;;;;;;8.73;5.63;;;;;;;;;;5091814;28;20028;-78
2021/03/05 14:34:28;;;;;;;11.40;6.25;;;;;;;;;;5079161;28;20040;-80
2021/03/05 14:36:54;;;;;;;7.22;4.15;;;;;;;;;;5075582;28;20043;-74
2021/03/05 14:39:20;;;;;;;4.82;2.88;;;;;;;;;;5077127;28;20028;-74
2021/03/05 14:41:46;;;;;;;5.65;3.60;;;;;;;;;;5074882;28;20021;-75
2021/03/05 14:44:12;;;;;;;5.03;3.30;;;;;;;;;;5085410;28;20025;-74
2021/03/05 14:46:38;;;;;;;4.43;2.80;;;;;;;;;;5088525;28;20026;-74
2021/03/05 14:49:06;;;;;;;5.65;3.67;;;;;;;;;;5083039;28;20033;-74
2021/03/05 14:51:32;;;;;;;10.20;5.25;;;;;;;;;;5082110;28;20024;-74
2021/03/05 14:53:58;;;;;;;11.65;6.03;;;;;;;;;;5075141;28;20028;-74
2021/03/05 14:56:24;;;;;;;5.03;3.50;;;;;;;;;;5087068;28;20036;-75
2021/03/05 14:58:50;;;;;;;7.80;3.40;;;;;;;;;;5088971;28;20102;-74
2021/03/05 15:01:16;;;;;;;5.45;3.30;;;;;;;;;;5068746;28;20489;-74
2021/03/05 15:03:42;;;;;;;6.80;3.28;;;;;;;;;;5072028;28;20016;-75
2021/03/05 15:06:08;;;;;;;6.63;3.60;;;;;;;;;;5053894;28;20397;-75
2021/03/05 15:08:34;;;;;;;6.13;3.30;;;;;;;;;;5069793;28;20108;-74
2021/03/05 15:11:00;;;;;;;5.63;2.80;;;;;;;;;;5071593;28;20525;-74
2021/03/05 15:13:26;;;;;;;5.03;3.40;;;;;;;;;;5071293;28;20071;-75
2021/03/05 15:15:52;;;;;;;5.00;3.30;;;;;;;;;;5064289;28;20021;-75
2021/03/05 15:18:18;;;;;;;4.70;2.83;;;;;;;;;;5071389;28;20435;-75
2021/03/05 15:20:45;;;;;;;5.43;3.30;;;;;;;;;;5069404;28;20028;-75
2021/03/05 15:23:11;;;;;;;7.90;3.80;;;;;;;;;;5072628;28;20043;-75
2021/03/05 15:25:37;;;;;;;6.13;3.17;;;;;;;;;;5061034;28;20110;-74
2021/03/05 15:28:03;;;;;;;6.25;3.63;;;;;;;;;;5071017;28;20040;-75
2021/03/05 15:30:29;;;;;;;5.03;3.20;;;;;;;;;;5057366;28;20025;-75
2021/03/05 15:32:55;;;;;;;6.47;3.30;;;;;;;;;;5051740;28;20489;-75
2021/03/05 15:35:21;;;;;;;6.18;3.33;;;;;;;;;;5065616;28;20036;-75
2021/03/05 15:37:47;;;;;;;7.68;3.47;;;;;;;;;;5072206;28;20382;-74
2021/03/05 15:40:14;;;;;;;5.00;3.13;;;;;;;;;;5065320;28;20493;-74
2021/03/05 15:42:41;;;;;;;5.88;3.80;;;;;;;;;;5071406;28;20082;-75
2021/03/05 15:45:08;;;;;;;6.32;3.42;;;;;;;;;;5064810;28;20035;-75
2021/03/05 15:47:34;;;;;;;6.40;3.88;;;;;;;;;;5071667;28;20037;-75
2021/03/05 15:50:00;;;;;;;5.57;3.90;;;;;;;;;;5061138;28;20021;-75
2021/03/05 15:52:26;;;;;;;7.13;4.10;;;;;;;;;;5051344;28;20025;-75
2021/03/05 15:54:52;;;;;;;11.80;4.45;;;;;;;;;;5061128;28;20493;-75
2021/03/05 15:57:18;;;;;;;6.32;3.72;;;;;;;;;;5087651;28;20028;-75
2021/03/05 15:59:44;;;;;;;4.97;3.47;;;;;;;;;;5095624;28;20078;-75
2021/03/05 16:02:10;;;;;;;4.25;2.88;;;;;;;;;;5049896;28;20025;-75
2021/03/05 16:04:36;;;;;;;6.50;3.10;;;;;;;;;;5058993;28;20504;-75
2021/03/05 16:07:02;;;;;;;7.78;3.78;;;;;;;;;;5070590;28;20389;-75
2021/03/05 16:09:28;;;;;;;5.95;3.60;;;;;;;;;;5065168;28;20025;-75
2021/03/05 16:11:54;;;;;;;5.68;3.65;;;;;;;;;;5051192;28;20040;-75
2021/03/05 16:14:20;;;;;;;5.38;3.15;;;;;;;;;;5056606;28;20086;-75
2021/03/05 16:16:47;;;;;;;4.50;2.45;;;;;;;;;;5069812;28;20024;-74
2021/03/05 16:19:13;;;;;;;4.63;2.67;;;;;;;;;;5065826;28;20025;-74
2021/03/05 16:21:39;;;;;;;4.88;2.75;;;;;;;;;;5051025;28;20031;-74
2021/03/05 16:24:07;;;;;;;11.52;3.63;;;;;;;;;;5054277;28;20098;-74
2021/03/05 16:26:33;;;;;;;5.68;2.90;;;;;;;;;;5070777;28;20032;-74
2021/03/05 16:28:59;;;;;;;6.07;4.30;;;;;;;;;;5066069;28;20393;-74
2021/03/05 16:31:25;;;;;;;5.03;3.08;;;;;;;;;;5066351;28;20028;-74
2021/03/05 16:33:51;;;;;;;5.40;3.20;;;;;;;;;;5069691;28;20534;-74
2021/03/05 16:36:18;;;;;;;4.65;3.30;;;;;;;;;;5051253;28;20033;-74
2021/03/05 16:38:44;;;;;;;5.30;3.22;;;;;;;;;;5063447;28;20028;-74
2021/03/05 16:41:11;;;;;;;4.25;2.97;;;;;;;;;;5033090;28;20025;-74
2021/03/05 16:43:37;;;;;;;5.38;3.75;;;;;;;;;;5065120;28;20028;-76
2021/03/05 16:46:03;;;;;;;5.28;3.75;;;;;;;;;;5062126;28;20036;-77
2021/03/05 16:48:29;;;;;;;5.80;3.85;;;;;;;;;;5066445;28;20449;-76
2021/03/05 16:50:55;;;;;;;6.25;4.30;;;;;;;;;;5063533;28;20024;-77
2021/03/05 16:53:21;;;;;;;6.78;4.22;;;;;;;;;;5066611;28;20079;-77
2021/03/05 16:55:47;;;;;;;7.88;4.00;;;;;;;;;;5053046;28;20065;-76
2021/03/05 16:58:13;;;;;;;6.50;4.47;;;;;;;;;;5065651;28;20138;-75
2021/03/05 17:00:39;;;;;;;5.65;3.50;;;;;;;;;;5059832;28;20577;-76
2021/03/05 17:03:06;;;;;;;8.30;4.88;;;;;;;;;;5059520;28;20016;-78
2021/03/05 17:05:32;;;;;;;9.93;5.38;;;;;;;;;;5061162;28;20035;-77
2021/03/05 17:07:58;;;;;;;10.25;5.95;;;;;;;;;;5066008;28;20028;-76
2021/03/05 17:10:24;;;;;;;17.27;6.90;;;;;;;;;;5066915;28;20051;-75
2021/03/05 17:12:50;;;;;;;15.35;7.15;;;;;;;;;;5066695;28;20478;-77
2021/03/05 17:15:17;;;;;;;18.42;8.25;;;;;;;;;;5054070;28;20508;-77
2021/03/05 17:17:43;;;;;;;19.08;8.45;;;;;;;;;;5052911;28;20017;-76
2021/03/05 17:20:09;;;;;;;14.88;8.00;;;;;;;;;;5054997;28;20048;-76
2021/03/05 17:22:35;;;;;;;12.05;7.45;;;;;;;;;;5029338;28;20087;-76
2021/03/05 17:25:02;;;;;;;14.77;6.82;;;;;;;;;;5058222;28;20025;-76
2021/03/05 17:27:28;;;;;;;14.20;7.82;;;;;;;;;;5067453;28;20601;-75
2021/03/05 17:29:54;;;;;;;17.02;8.25;;;;;;;;;;5066832;28;20032;-76
2021/03/05 17:32:20;;;;;;;14.07;7.90;;;;;;;;;;5066611;28;20025;-76
2021/03/05 17:34:46;;;;;;;16.30;8.60;;;;;;;;;;5057725;28;20067;-76
2021/03/05 17:37:12;;;;;;;11.38;6.20;;;;;;;;;;5047663;28;20032;-77
2021/03/05 17:39:38;;;;;;;9.90;6.00;;;;;;;;;;5053949;28;20289;-77
2021/03/05 17:42:04;;;;;;;7.70;5.32;;;;;;;;;;5076071;28;20408;-76
2021/03/05 17:44:30;;;;;;;8.90;5.45;;;;;;;;;;5070980;28;20134;-76
2021/03/05 17:46:56;;;;;;;9.63;7.05;;;;;;;;;;5070593;28;20028;-76
2021/03/05 17:49:22;;;;;;;9.02;7.20;;;;;;;;;;5064084;28;20036;-76
2021/03/05 17:51:48;;;;;;;10.25;6.90;;;;;;;;;;5050683;28;20029;-76
2021/03/05 17:54:14;;;;;;;8.70;5.22;;;;;;;;;;5054689;28;20032;-77
2021/03/05 17:56:41;;;;;;;8.43;5.32;;;;;;;;;;5068928;28;20033;-77
2021/03/05 17:59:07;;;;;;;7.57;5.30;;;;;;;;;;5067251;28;20060;-76
2021/03/05 18:01:33;;;;;;;8.18;5.10;;;;;;;;;;5062725;28;20077;-77
2021/03/05 18:04:00;;;;;;;9.38;5.78;;;;;;;;;;5066271;28;20043;-76
2021/03/05 18:06:26;;;;;;;9.63;5.97;;;;;;;;;;5051058;28;20043;-77
2021/03/05 18:08:53;;;;;;;8.93;5.97;;;;;;;;;;5052915;28;20518;-76
2021/03/05 18:11:19;;;;;;;9.43;6.10;;;;;;;;;;5070505;28;20478;-76
2021/03/05 18:13:45;;;;;;;9.50;5.78;;;;;;;;;;5070887;28;20029;-76
2021/03/05 18:16:11;;;;;;;8.52;6.25;;;;;;;;;;5051441;28;20416;-77
2021/03/05 18:18:37;;;;;;;10.30;6.57;;;;;;;;;;5062904;28;20031;-76
2021/03/05 18:21:04;;;;;;;11.40;7.43;;;;;;;;;;5062252;28;20029;-76
2021/03/05 18:23:30;;;;;;;12.10;7.70;;;;;;;;;;5052846;28;20466;-77
2021/03/05 18:25:56;;;;;;;13.40;6.72;;;;;;;;;;5069475;28;20554;-77
2021/03/05 18:28:22;;;;;;;10.68;7.05;;;;;;;;;;5071639;28;20079;-78
2021/03/05 18:30:48;;;;;;;9.95;6.53;;;;;;;;;;5071351;28;20024;-77
2021/03/05 18:33:14;;;;;;;11.07;6.30;;;;;;;;;;5071771;28;20104;-77
2021/03/05 18:35:40;;;;;;;10.48;6.75;;;;;;;;;;5056177;28;20036;-77
2021/03/05 18:38:07;;;;;;;11.23;6.50;;;;;;;;;;5048763;28;20033;-77
2021/03/05 18:40:33;;;;;;;9.80;6.57;;;;;;;;;;5064206;28;20033;-77
2021/03/05 18:42:59;;;;;;;9.00;6.18;;;;;;;;;;5070840;28;20032;-77
2021/03/05 18:45:25;;;;;;;10.48;8.55;;;;;;;;;;5055379;28;20037;-76
2021/03/05 18:47:51;;;;;;;8.70;5.88;;;;;;;;;;5050105;28;20029;-76
2021/03/05 18:50:17;;;;;;;10.05;6.15;;;;;;;;;;5063330;28;20110;-76
2021/03/05 18:52:43;;;;;;;8.60;5.88;;;;;;;;;;5066732;28;20111;-76
